X  Lukk Metar værinformasjon om luftfart     ENRY Moss Airport, Rygge
Temperatur
19°C Temperatur
11°C Duggpunkt
60% Luftfuktighet



Vind
5 M/S
12 MPT
19 KM/T
10 KNP



210°
SSV
Nåværende forhold

Stort sett spredte skyer Stort sett spredte skyer
Trykk 1013.92 (hPa) - 29.94 (inHg)
Sikt 6.2 (mil) - 10 (km)
Flyplass
Flyplass-kode ENRY

Plassering: Moss Airport, Rygge
Avstand: 12 (km)

Metar:
ENRY 051150Z 21010KT 160V230 9999 SCT035 OVC049 19/11 Q1014 NOSIG

Tid: 05-08-2021 13:50 CEST